Time;durP1;ratioP1;P1;durP2;ratioP2;P2;SDS_P1;SDS_P2;PMS_P1;PMS_P2;Temp;Humidity;BMP_temperature;BMP_pressure;BME280_temperature;BME280_humidity;BME280_pressure;Samples;Min_cycle;Max_cycle;Signal;HPM_P1;HPM_P2
2023/04/28 00:00:43;;;;;;;16.30;14.70;;;;;;;4.14;83.71;100259.16;10415697;28;20049;-71
2023/04/28 00:05:46;;;;;;;17.65;15.88;;;;;;;4.34;82.42;100259.13;10415737;28;20041;-71
2023/04/28 00:10:48;;;;;;;18.20;16.23;;;;;;;4.07;84.13;100246.16;10414795;28;20049;-71
2023/04/28 00:15:51;;;;;;;18.10;15.00;;;;;;;4.24;83.85;100245.22;10397083;28;20111;-70
2023/04/28 00:20:56;;;;;;;18.02;16.33;;;;;;;4.25;83.23;100243.50;10415514;28;20161;-71
2023/04/28 00:25:58;;;;;;;18.23;16.23;;;;;;;4.33;83.38;100241.75;10414904;28;20064;-71
2023/04/28 00:31:00;;;;;;;16.15;14.65;;;;;;;4.23;83.54;100230.50;10414578;28;20398;-71
2023/04/28 00:36:02;;;;;;;16.35;14.40;;;;;;;3.99;85.23;100218.44;10412638;28;20152;-70
2023/04/28 00:41:05;;;;;;;16.48;14.63;;;;;;;3.75;86.57;100203.72;10413958;28;20038;-71
2023/04/28 00:46:07;;;;;;;17.65;15.43;;;;;;;3.96;86.29;100202.81;10414078;28;20045;-71
2023/04/28 00:51:09;;;;;;;16.67;14.48;;;;;;;3.98;85.27;100195.00;10414265;28;20052;-71
2023/04/28 00:56:11;;;;;;;16.73;15.25;;;;;;;4.05;84.37;100196.72;10412236;28;20058;-70
2023/04/28 01:01:13;;;;;;;16.52;14.93;;;;;;;3.88;85.28;100186.38;10413028;28;20417;-71
2023/04/28 01:06:16;;;;;;;17.25;15.85;;;;;;;3.59;87.40;100177.78;10413560;28;20349;-71
2023/04/28 01:11:18;;;;;;;19.08;15.70;;;;;;;3.47;88.87;100174.31;10410691;28;20049;-71
2023/04/28 01:16:39;;;;;;;16.17;14.48;;;;;;;3.56;88.16;100172.56;10411776;28;20103;-71
2023/04/28 01:21:42;;;;;;;14.48;13.25;;;;;;;3.65;87.04;100169.94;10413661;28;20117;-71
2023/04/28 01:26:58;;;;;;;14.95;13.85;;;;;;;3.70;84.83;100174.25;10394770;28;20045;-70
2023/04/28 01:32:01;;;;;;;12.88;11.73;;;;;;;3.80;84.01;100165.56;10411298;28;20117;-71
2023/04/28 01:37:03;;;;;;;12.52;11.20;;;;;;;3.93;81.62;100149.94;10412041;28;20446;-71
2023/04/28 01:42:05;;;;;;;12.18;11.07;;;;;;;3.78;82.07;100150.88;10410558;28;20041;-70
2023/04/28 01:47:07;;;;;;;13.00;10.60;;;;;;;3.81;82.24;100148.25;10410753;28;20045;-70
2023/04/28 01:52:09;;;;;;;11.27;10.27;;;;;;;3.83;81.42;100132.66;10408966;28;20045;-70
2023/04/28 01:57:11;;;;;;;10.10;9.18;;;;;;;3.89;81.21;100136.09;10410940;28;20052;-70
2023/04/28 02:02:13;;;;;;;10.85;10.05;;;;;;;3.73;82.11;100122.28;10409537;28;20053;-71
2023/04/28 02:07:16;;;;;;;10.32;9.32;;;;;;;3.61;83.18;100134.44;10409384;28;20048;-70
2023/04/28 02:12:17;;;;;;;13.00;12.00;;;;;;;3.70;83.30;100132.66;10410116;28;20069;-70
2023/04/28 02:17:19;;;;;;;10.98;10.02;;;;;;;3.70;84.08;100122.28;10409179;28;20136;-71
2023/04/28 02:22:22;;;;;;;11.60;10.60;;;;;;;3.69;84.59;100112.75;10410227;28;20041;-71
2023/04/28 02:27:24;;;;;;;11.07;10.27;;;;;;;3.79;82.66;100114.44;10411850;28;20102;-70
2023/04/28 02:32:25;;;;;;;11.95;10.95;;;;;;;3.75;83.50;100104.91;10411612;28;20056;-70
2023/04/28 02:37:27;;;;;;;11.57;10.57;;;;;;;3.78;83.48;100106.66;10411458;28;20099;-71
2023/04/28 02:42:29;;;;;;;11.23;10.30;;;;;;;3.81;83.57;100104.06;10408916;28;20045;-70
2023/04/28 02:47:30;;;;;;;11.40;10.45;;;;;;;3.85;83.52;100089.28;10408706;28;20152;-71
2023/04/28 02:52:32;;;;;;;11.20;10.30;;;;;;;4.04;81.77;100088.38;10409605;28;20076;-70
2023/04/28 02:57:34;;;;;;;10.77;9.73;;;;;;;3.86;82.13;100081.50;10408874;28;20140;-70
2023/04/28 03:02:37;;;;;;;9.52;8.82;;;;;;;3.87;82.05;100087.56;10408997;28;20054;-70
2023/04/28 03:07:38;;;;;;;9.07;8.35;;;;;;;4.00;80.16;100082.31;10416520;28;20475;-71
2023/04/28 03:12:40;;;;;;;10.35;9.27;;;;;;;4.13;80.49;100075.31;10418073;28;20048;-70
2023/04/28 03:17:42;;;;;;;9.82;8.82;;;;;;;4.39;78.97;100063.91;10416375;28;20045;-70
2023/04/28 03:22:44;;;;;;;9.45;8.65;;;;;;;4.20;77.74;100052.72;10417489;28;20113;-70
2023/04/28 03:27:46;;;;;;;9.13;8.40;;;;;;;4.02;78.62;100045.88;10417515;28;20045;-70
2023/04/28 03:32:48;;;;;;;9.55;8.65;;;;;;;3.94;79.97;100038.13;10415825;28;20351;-70
2023/04/28 03:37:49;;;;;;;9.15;8.23;;;;;;;4.04;79.01;100042.41;10416238;28;20050;-74
2023/04/28 03:42:51;;;;;;;9.93;8.75;;;;;;;4.20;77.75;100044.91;10417120;28;20049;-74
2023/04/28 03:48:01;;;;;;;9.70;8.73;;;;;;;4.03;78.38;100043.28;10416639;28;20045;-74
2023/04/28 03:53:03;;;;;;;8.48;7.78;;;;;;;3.96;78.80;100031.16;10416491;28;20053;-73
2023/04/28 03:58:06;;;;;;;9.25;8.45;;;;;;;4.08;77.83;100045.00;10415857;28;20119;-73
2023/04/28 04:03:09;;;;;;;8.60;7.80;;;;;;;4.41;74.56;100043.91;10415919;28;20124;-74
2023/04/28 04:08:11;;;;;;;9.20;8.35;;;;;;;4.37;75.77;100024.00;10417334;28;20459;-74
2023/04/28 04:13:12;;;;;;;7.80;7.20;;;;;;;4.67;73.61;100021.16;10414886;28;20053;-74
2023/04/28 04:18:17;;;;;;;8.07;7.38;;;;;;;4.95;71.24;100015.72;10414894;28;20049;-73
2023/04/28 04:23:41;;;;;;;9.77;7.63;;;;;;;5.14;70.13;100006.00;10419625;28;20391;-74
2023/04/28 04:28:43;;;;;;;8.38;7.22;;;;;;;5.18;69.52;100003.34;10422229;28;20049;-73
2023/04/28 04:33:45;;;;;;;8.10;7.40;;;;;;;5.48;67.66;99996.91;10420040;28;20038;-73
2023/04/28 04:38:47;;;;;;;8.98;7.50;;;;;;;5.55;67.91;99995.97;10420816;28;20041;-73
2023/04/28 04:43:51;;;;;;;8.43;7.22;;;;;;;5.67;67.20;99994.09;10419966;28;20056;-73
2023/04/28 04:48:54;;;;;;;8.45;7.65;;;;;;;5.62;67.92;99990.66;10418536;28;20556;-73
2023/04/28 04:53:55;;;;;;;9.48;7.07;;;;;;;5.63;68.80;99989.81;10420592;28;20440;-72
2023/04/28 04:58:58;;;;;;;7.95;7.15;;;;;;;5.81;66.99;99985.22;10420240;28;20102;-72
2023/04/28 05:04:20;;;;;;;8.98;7.25;;;;;;;5.75;67.56;99980.06;10409921;28;20073;-73
2023/04/28 05:09:23;;;;;;;7.93;7.22;;;;;;;5.95;66.78;99979.84;10419178;28;20553;-73
2023/04/28 05:14:25;;;;;;;7.28;6.63;;;;;;;6.09;66.50;99976.16;10417630;28;20132;-72
2023/04/28 05:19:27;;;;;;;10.02;7.60;;;;;;;6.12;66.67;99968.31;10413493;28;20045;-73
2023/04/28 05:24:29;;;;;;;10.18;7.65;;;;;;;6.39;64.96;99964.41;10413221;28;20072;-73
2023/04/28 05:29:31;;;;;;;14.15;7.90;;;;;;;6.50;64.88;99960.72;10411612;28;20045;-74
2023/04/28 05:34:33;;;;;;;8.55;7.68;;;;;;;6.64;63.83;99944.84;10412296;28;20089;-74
2023/04/28 05:39:35;;;;;;;10.02;8.23;;;;;;;6.55;66.78;99945.88;10413887;28;20099;-73
2023/04/28 05:44:39;;;;;;;9.70;8.55;;;;;;;6.81;64.28;99940.16;10413438;28;20049;-73
2023/04/28 05:49:51;;;;;;;11.48;7.32;;;;;;;7.01;62.94;99942.44;10414094;23;20056;31
2023/04/28 05:54:53;;;;;;;8.52;7.30;;;;;;;7.21;62.66;99943.78;10396532;28;20054;-73
2023/04/28 05:59:55;;;;;;;8.60;7.65;;;;;;;7.30;62.97;99933.16;10409740;28;20041;-73
2023/04/28 06:04:57;;;;;;;11.18;7.72;;;;;;;7.71;62.01;99934.06;10390325;28;20045;-72
2023/04/28 06:10:00;;;;;;;12.98;7.22;;;;;;;8.31;59.28;99933.53;10391898;28;20362;-72
2023/04/28 06:15:02;;;;;;;9.15;7.45;;;;;;;8.74;60.29;99938.59;10390389;28;20100;-73
2023/04/28 06:20:05;;;;;;;12.00;7.65;;;;;;;9.21;56.91;99936.50;10391132;28;20058;-72
2023/04/28 06:25:08;;;;;;;9.55;6.95;;;;;;;9.22;56.90;99929.47;10389711;28;20076;-72
2023/04/28 06:30:20;;;;;;;8.73;6.53;;;;;;;9.21;57.30;99927.72;10389107;28;20112;-72
2023/04/28 06:35:22;;;;;;;7.50;6.10;;;;;;;9.52;56.14;99931.22;10388980;28;20046;-74
2023/04/28 06:40:24;;;;;;;9.02;6.57;;;;;;;9.44;59.27;99921.84;10407024;28;20045;-71
2023/04/28 06:45:29;;;;;;;9.52;6.53;;;;;;;9.84;54.73;99916.28;10389152;28;20041;-73
2023/04/28 06:50:31;;;;;;;6.93;6.10;;;;;;;9.98;55.46;99915.84;10406800;28;20087;-72
2023/04/28 06:55:33;;;;;;;7.07;6.10;;;;;;;10.21;53.42;99915.13;10404949;28;20082;-72
2023/04/28 07:00:35;;;;;;;9.15;6.40;;;;;;;10.32;53.64;99911.28;10405750;28;20049;-72
2023/04/28 07:05:37;;;;;;;7.95;5.43;;;;;;;10.50;55.16;99904.56;10406769;28;20158;-72
2023/04/28 07:10:38;;;;;;;10.30;5.88;;;;;;;10.76;54.84;99900.19;10407326;28;20120;-73
2023/04/28 07:15:41;;;;;;;8.38;5.95;;;;;;;11.44;50.63;99893.34;10407847;28;20041;-73
2023/04/28 07:20:42;;;;;;;9.40;6.50;;;;;;;11.80;50.56;99888.44;10390581;28;20053;-73
2023/04/28 07:25:44;;;;;;;8.48;5.75;;;;;;;11.81;50.28;99887.50;10406972;28;20046;-73
2023/04/28 07:30:46;;;;;;;6.95;6.15;;;;;;;11.89;50.00;99887.25;10406842;28;20479;-73
2023/04/28 07:35:48;;;;;;;12.90;6.10;;;;;;;11.84;52.36;99876.91;10388975;28;20107;-72
2023/04/28 07:40:50;;;;;;;6.05;5.45;;;;;;;12.07;50.96;99868.94;10407564;28;20038;-71
2023/04/28 07:45:52;;;;;;;7.22;5.68;;;;;;;12.48;49.69;99862.88;10406298;28;20180;-72
2023/04/28 07:50:54;;;;;;;7.13;5.47;;;;;;;12.96;46.88;99864.31;10408550;28;20109;-74
2023/04/28 07:55:56;;;;;;;9.45;5.30;;;;;;;12.98;47.62;99857.19;10414502;28;20087;-72
2023/04/28 08:00:57;;;;;;;7.97;4.97;;;;;;;13.43;48.14;99856.06;10413905;28;20355;-72
2023/04/28 08:05:59;;;;;;;6.45;5.03;;;;;;;13.52;46.85;99845.06;10414759;28;20105;-72
2023/04/28 08:11:02;;;;;;;10.40;4.63;;;;;;;13.76;45.14;99845.69;10413803;28;20053;-72
2023/04/28 08:16:04;;;;;;;7.75;4.40;;;;;;;14.02;45.27;99845.28;10413850;28;20041;-73
2023/04/28 08:21:06;;;;;;;8.90;4.28;;;;;;;14.42;44.71;99837.16;10413198;28;20144;-73
2023/04/28 08:26:08;;;;;;;7.28;4.63;;;;;;;14.32;44.27;99831.50;10395390;28;20055;-73
2023/04/28 08:31:09;;;;;;;6.47;3.95;;;;;;;14.39;44.55;99841.69;10413843;28;20151;-73
2023/04/28 08:36:13;;;;;;;8.27;4.10;;;;;;;14.44;44.20;99830.88;10413293;28;20080;-73
2023/04/28 08:41:15;;;;;;;6.35;3.65;;;;;;;14.43;44.14;99821.19;10412867;28;20092;-72
2023/04/28 08:46:20;;;;;;;5.90;4.00;;;;;;;14.54;44.91;99813.63;10413899;28;20383;-74
2023/04/28 08:51:34;;;;;;;6.03;3.70;;;;;;;14.86;45.08;99819.88;10413141;28;20124;-74
2023/04/28 08:56:37;;;;;;;7.30;3.38;;;;;;;14.99;44.50;99812.13;10414198;28;20455;-75
2023/04/28 09:01:39;;;;;;;10.50;3.92;;;;;;;15.06;43.42;99813.53;10427972;28;20150;-73
2023/04/28 09:06:41;;;;;;;8.35;3.63;;;;;;;15.67;44.70;99804.06;10434287;28;20041;-73
2023/04/28 09:12:10;;;;;;;7.03;3.35;;;;;;;15.66;43.24;99804.13;10434815;28;20102;-74
2023/04/28 09:17:13;;;;;;;5.88;3.80;;;;;;;15.71;43.97;99791.47;10448751;28;20060;-72
2023/04/28 09:22:15;;;;;;;5.75;3.30;;;;;;;15.86;42.71;99790.59;10452448;28;20049;-72
2023/04/28 09:27:27;;;;;;;7.07;3.53;;;;;;;16.13;41.74;99790.78;10452346;28;20398;-73
2023/04/28 09:32:29;;;;;;;7.53;3.00;;;;;;;16.27;43.27;99792.63;10451117;28;20151;-73
2023/04/28 09:37:32;;;;;;;5.40;2.67;;;;;;;16.27;42.52;99788.16;10450426;28;20124;-73
2023/04/28 09:42:45;;;;;;;6.45;2.75;;;;;;;16.48;40.96;99786.06;10450381;28;20113;-74
2023/04/28 09:47:47;;;;;;;5.75;2.72;;;;;;;16.29;41.04;99778.34;10450580;28;20049;-73
2023/04/28 09:52:57;;;;;;;4.22;2.47;;;;;;;16.40;39.83;99783.00;10450719;28;20068;-74
2023/04/28 09:58:04;;;;;;;2.78;1.90;;;;;;;16.28;41.09;99781.91;10455093;28;20060;-73
2023/04/28 10:03:08;;;;;;;5.75;2.65;;;;;;;16.25;40.66;99774.16;10451667;28;20136;-72
2023/04/28 10:08:10;;;;;;;5.20;2.60;;;;;;;16.25;41.07;99778.63;10450055;28;20120;-74
2023/04/28 10:13:18;;;;;;;3.17;2.10;;;;;;;15.96;41.61;99783.81;10449425;28;20073;-72
2023/04/28 10:18:22;;;;;;;5.88;2.72;;;;;;;15.79;43.01;99783.94;10449777;28;20057;-73
2023/04/28 10:23:56;;;;;;;5.05;2.70;;;;;;;15.52;45.52;99800.41;10447583;28;20537;-73
2023/04/28 10:28:58;;;;;;;3.28;2.33;;;;;;;15.04;52.63;99798.66;10408601;28;20143;-74
2023/04/28 10:34:21;;;;;;;6.05;3.00;;;;;;;14.80;56.76;99804.34;10448085;28;20140;-73
2023/04/28 10:39:22;;;;;;;6.00;3.30;;;;;;;14.72;58.86;99803.03;10449399;28;20398;-73
2023/04/28 10:44:27;;;;;;;4.97;3.20;;;;;;;13.85;64.15;99805.63;10448279;28;20117;-72
2023/04/28 10:49:56;;;;;;;6.40;4.15;;;;;;;13.47;67.03;99807.47;10448210;28;20049;-72
2023/04/28 10:55:27;;;;;;;6.95;4.38;;;;;;;13.22;71.91;99799.81;10448266;28;20041;-71
2023/04/28 11:00:29;;;;;;;7.65;5.57;;;;;;;13.01;77.37;99809.53;10448800;28;20095;-70
2023/04/28 11:05:33;;;;;;;5.22;4.70;;;;;;;13.16;77.02;99808.00;10448228;28;20045;-72
2023/04/28 11:11:09;;;;;;;6.03;5.35;;;;;;;13.08;79.19;99809.22;10448092;28;20056;-70
2023/04/28 11:16:16;;;;;;;6.10;5.45;;;;;;;13.33;74.02;99808.13;10447657;28;20037;-71
2023/04/28 11:21:19;;;;;;;6.00;5.40;;;;;;;13.31;79.10;99810.81;10446431;28;20094;-71
2023/04/28 11:26:22;;;;;;;6.22;4.57;;;;;;;13.41;81.10;99820.94;10450167;28;20047;-71
2023/04/28 11:31:25;;;;;;;4.97;4.18;;;;;;;13.67;78.16;99817.06;10455178;28;20179;-71
2023/04/28 11:36:31;;;;;;;4.13;3.72;;;;;;;13.73;72.57;99814.16;10455129;28;20045;-70
2023/04/28 11:41:35;;;;;;;6.43;4.43;;;;;;;13.48;72.65;99820.59;10455072;28;20065;-70
2023/04/28 11:46:53;;;;;;;4.90;4.50;;;;;;;13.29;68.75;99817.13;10437776;28;20461;-70
2023/04/28 11:51:58;;;;;;;7.10;4.38;;;;;;;13.33;71.54;99818.69;10461206;22;20049;-74
2023/04/28 11:57:03;;;;;;;6.03;4.43;;;;;;;13.62;75.83;99815.50;10459141;28;20052;-75
2023/04/28 12:02:06;;;;;;;3.75;3.42;;;;;;;13.68;71.28;99809.09;10440701;28;20065;-75
2023/04/28 12:07:12;;;;;;;4.10;3.70;;;;;;;13.92;65.95;99801.75;10441278;28;20550;-75
2023/04/28 12:12:28;;;;;;;5.72;4.00;;;;;;;14.11;68.15;99791.97;10458981;28;20125;-75
2023/04/28 12:17:50;;;;;;;6.00;4.37;;;;;;;13.91;67.87;99800.03;10458070;28;20045;-75
2023/04/28 12:22:52;;;;;;;4.90;3.67;;;;;;;13.76;69.16;99795.50;10456692;28;20500;-74
2023/04/28 12:28:02;;;;;;;7.55;4.45;;;;;;;13.69;70.42;99792.31;10457588;28;20045;-74
2023/04/28 12:33:04;;;;;;;5.53;3.90;;;;;;;14.04;69.65;99784.44;10457963;28;20431;-74
2023/04/28 12:38:10;;;;;;;5.20;4.32;;;;;;;14.30;64.89;99783.13;10440449;28;20049;-75
2023/04/28 12:43:12;;;;;;;6.10;4.60;;;;;;;13.95;68.53;99783.13;10459056;28;20380;-74
2023/04/28 12:48:14;;;;;;;9.55;4.68;;;;;;;13.67;70.60;99791.50;10439249;28;20127;-74
2023/04/28 12:53:15;;;;;;;5.05;4.57;;;;;;;13.71;67.02;99771.94;10456918;28;20040;-74
2023/04/28 12:58:17;;;;;;;7.18;4.97;;;;;;;13.66;68.35;99773.97;10439797;28;20158;-74
2023/04/28 13:03:20;;;;;;;4.95;4.55;;;;;;;13.62;74.24;99770.59;10443773;28;20079;-74
2023/04/28 13:08:22;;;;;;;6.93;6.30;;;;;;;13.58;73.88;99760.25;10433661;28;20042;-74
2023/04/28 13:13:24;;;;;;;7.80;7.03;;;;;;;13.65;71.45;99763.47;10445685;28;20051;-74
2023/04/28 13:18:26;;;;;;;11.30;7.38;;;;;;;13.34;74.82;99762.31;10456498;28;20048;-76
2023/04/28 13:23:28;;;;;;;8.30;7.50;;;;;;;13.15;75.87;99751.75;10416362;28;20080;-74
2023/04/28 13:28:30;;;;;;;10.18;7.97;;;;;;;13.13;76.57;99741.22;10397120;28;20142;-74
2023/04/28 13:33:31;;;;;;;9.55;8.68;;;;;;;12.98;74.84;99739.31;10414635;28;20041;-74
2023/04/28 13:38:33;;;;;;;9.85;8.63;;;;;;;12.99;77.40;99730.47;10441152;28;20045;-75
2023/04/28 13:43:36;;;;;;;12.32;9.55;;;;;;;13.07;79.24;99723.06;10497987;28;20044;-75
2023/04/28 13:48:39;;;;;;;10.30;9.35;;;;;;;13.02;77.13;99719.78;10479076;28;20083;-75
2023/04/28 13:53:41;;;;;;;10.13;9.25;;;;;;;12.74;78.96;99708.78;10498007;28;20366;-74
2023/04/28 13:58:42;;;;;;;10.77;9.43;;;;;;;12.86;78.72;99705.59;10497778;28;20512;-74
2023/04/28 14:03:44;;;;;;;10.27;9.38;;;;;;;12.70;79.85;99707.22;10478360;28;20055;-73
2023/04/28 14:08:46;;;;;;;10.95;10.10;;;;;;;12.55;84.22;99707.00;10479947;28;20139;-74
2023/04/28 14:13:48;;;;;;;11.48;10.57;;;;;;;12.55;81.31;99693.81;10479382;28;20076;-74
2023/04/28 14:18:50;;;;;;;11.65;10.70;;;;;;;12.20;87.08;99691.88;10479109;28;20055;-74
2023/04/28 14:23:52;;;;;;;13.52;12.38;;;;;;;12.30;84.57;99682.63;10496494;28;20055;-74
2023/04/28 14:28:54;;;;;;;12.73;11.80;;;;;;;12.53;81.43;99677.22;10496341;28;20516;-74
2023/04/28 14:33:56;;;;;;;11.48;10.68;;;;;;;12.58;83.92;99671.72;10461325;28;20040;-75
2023/04/28 14:38:58;;;;;;;12.70;11.65;;;;;;;12.65;83.65;99669.66;10479123;28;20462;-75
2023/04/28 14:44:00;;;;;;;11.35;10.35;;;;;;;12.76;81.11;99675.31;10477976;28;20084;-74
2023/04/28 14:49:02;;;;;;;11.43;10.52;;;;;;;12.96;80.74;99659.38;10476370;28;20064;-75
2023/04/28 14:54:04;;;;;;;11.90;11.00;;;;;;;12.96;82.39;99659.38;10458953;28;20049;-74
2023/04/28 14:59:05;;;;;;;11.07;10.15;;;;;;;12.81;79.62;99641.66;10476929;28;20482;-74
2023/04/28 15:04:08;;;;;;;12.15;11.07;;;;;;;12.93;82.10;99640.22;10489284;28;20135;-74
2023/04/28 15:09:11;;;;;;;11.48;10.43;;;;;;;13.00;80.90;99637.19;10489372;28;20060;-74
2023/04/28 15:14:12;;;;;;;12.98;11.20;;;;;;;13.05;78.49;99635.19;10506892;28;20044;-74
2023/04/28 15:19:14;;;;;;;10.80;9.80;;;;;;;13.12;76.02;99625.22;10506478;28;20127;-74
2023/04/28 15:24:19;;;;;;;10.25;9.35;;;;;;;12.97;76.80;99633.84;10472239;28;20052;-75
2023/04/28 15:29:21;;;;;;;11.52;9.82;;;;;;;12.94;77.93;99626.09;10506804;28;20123;-74
2023/04/28 15:34:23;;;;;;;9.63;8.90;;;;;;;13.02;77.36;99622.16;10488456;28;20048;-73
2023/04/28 15:39:27;;;;;;;9.90;9.10;;;;;;;13.06;77.40;99612.31;10488808;28;20102;-74
2023/04/28 15:44:28;;;;;;;9.88;8.95;;;;;;;13.27;73.41;99610.44;10505937;28;20431;-73
2023/04/28 15:49:31;;;;;;;8.75;8.05;;;;;;;13.01;74.67;99601.97;10505621;28;20052;-73
2023/04/28 15:54:33;;;;;;;8.45;7.55;;;;;;;12.97;74.43;99600.44;10505695;28;20044;-74
2023/04/28 15:59:35;;;;;;;9.93;8.77;;;;;;;13.02;75.16;99600.22;10486721;28;20045;-75
2023/04/28 16:04:37;;;;;;;8.65;7.93;;;;;;;13.11;72.12;99594.47;10504366;28;20044;-74
2023/04/28 16:09:39;;;;;;;10.02;7.85;;;;;;;13.00;72.83;99591.50;10420731;28;20152;-75
2023/04/28 16:14:41;;;;;;;7.80;7.10;;;;;;;12.76;75.82;99593.53;10439131;28;20045;-75
2023/04/28 16:19:43;;;;;;;6.38;5.78;;;;;;;12.84;75.45;99600.16;10439730;28;20063;-73
2023/04/28 16:24:46;;;;;;;5.75;5.10;;;;;;;12.65;78.22;99590.53;10438921;28;20470;-73
2023/04/28 16:29:48;;;;;;;4.85;4.05;;;;;;;12.68;75.37;99590.41;10403879;28;20096;-74
2023/04/28 16:34:50;;;;;;;4.55;4.15;;;;;;;12.50;76.55;99584.22;10447480;28;20133;-74
2023/04/28 16:39:52;;;;;;;5.07;4.60;;;;;;;12.52;76.00;99577.09;10418315;28;20056;-74
2023/04/28 16:44:54;;;;;;;5.00;4.60;;;;;;;12.34;77.04;99571.75;10458069;28;20060;-74
2023/04/28 16:49:56;;;;;;;6.63;5.32;;;;;;;12.30;76.47;99571.94;10441029;28;20359;-74
2023/04/28 16:54:59;;;;;;;6.38;5.85;;;;;;;12.25;78.36;99566.03;10458132;28;20071;-73
2023/04/28 17:00:01;;;;;;;6.40;5.80;;;;;;;12.28;76.79;99555.38;10440094;28;20122;-74
2023/04/28 17:05:03;;;;;;;7.53;5.78;;;;;;;12.32;75.17;99549.88;10457734;28;20055;-74
2023/04/28 17:10:06;;;;;;;6.63;6.03;;;;;;;12.46;74.11;99545.75;10457961;28;20049;-74
2023/04/28 17:15:08;;;;;;;6.38;5.80;;;;;;;12.30;75.72;99542.97;10438223;28;20060;-74
2023/04/28 17:20:10;;;;;;;6.50;5.90;;;;;;;12.13;76.79;99543.78;10454999;28;20456;-75
2023/04/28 17:25:13;;;;;;;5.63;5.07;;;;;;;12.40;73.68;99541.63;10417709;28;20144;-74
2023/04/28 17:30:14;;;;;;;5.20;4.57;;;;;;;12.33;74.01;99543.69;10414539;28;20121;-74
2023/04/28 17:35:16;;;;;;;5.63;4.10;;;;;;;12.36;72.89;99540.91;10397172;28;20506;-74
2023/04/28 17:40:22;;;;;;;5.20;4.80;;;;;;;12.30;72.77;99540.31;10404966;28;20049;-74
2023/04/28 17:45:24;;;;;;;4.75;4.10;;;;;;;12.25;73.87;99532.63;10456017;28;20049;-76
2023/04/28 17:50:27;;;;;;;5.18;4.53;;;;;;;12.25;74.08;99523.88;10454961;28;20129;-74
2023/04/28 17:55:29;;;;;;;6.82;4.57;;;;;;;12.20;74.63;99523.25;10474151;22;20493;-73
2023/04/28 18:00:31;;;;;;;5.80;5.18;;;;;;;12.20;74.76;99528.50;10493561;28;20071;-74
2023/04/28 18:05:32;;;;;;;5.72;4.93;;;;;;;12.22;74.19;99537.19;10471285;28;20097;-74
2023/04/28 18:10:36;;;;;;;5.72;5.03;;;;;;;12.25;74.20;99534.41;10435458;28;20055;-74
2023/04/28 18:15:38;;;;;;;6.80;6.15;;;;;;;12.30;74.20;99538.53;10491543;28;20044;-74
2023/04/28 18:20:41;;;;;;;7.57;6.88;;;;;;;12.09;75.60;99542.19;10476148;28;20052;-73
2023/04/28 18:25:43;;;;;;;6.50;5.90;;;;;;;11.87;76.94;99537.03;10492296;28;20045;-74
2023/04/28 18:35:46;;;;;;;7.25;6.55;;;;;;;11.73;79.33;99536.75;10491336;28;20041;-73
2023/04/28 18:40:48;;;;;;;7.47;6.70;;;;;;;11.79;79.59;99541.75;10492531;28;20104;-73
2023/04/28 18:45:50;;;;;;;8.18;7.57;;;;;;;11.69;80.91;99535.22;10458744;28;20044;-73
2023/04/28 18:50:52;;;;;;;9.57;8.70;;;;;;;12.02;77.59;99536.34;10489649;28;20048;-73
2023/04/28 18:55:56;;;;;;;10.35;9.60;;;;;;;12.04;77.05;99549.44;10491620;28;20477;-73
2023/04/28 19:00:58;;;;;;;10.95;10.10;;;;;;;12.15;76.63;99554.22;10490651;28;20093;-74
2023/04/28 19:06:00;;;;;;;9.98;9.18;;;;;;;12.16;76.17;99553.28;10491771;28;20120;-73
2023/04/28 19:11:02;;;;;;;11.18;10.07;;;;;;;12.05;77.47;99553.78;10490506;28;20523;-74
2023/04/28 19:16:03;;;;;;;10.60;9.75;;;;;;;11.96;78.51;99555.06;10491101;28;20385;-73
2023/04/28 19:21:05;;;;;;;11.15;10.25;;;;;;;11.86;79.65;99554.63;10490081;28;20047;-73
2023/04/28 19:26:09;;;;;;;10.98;10.13;;;;;;;11.82;79.70;99550.41;10490020;28;20095;-73
2023/04/28 19:31:11;;;;;;;13.05;11.35;;;;;;;11.78;80.50;99547.97;10492944;28;20497;-73
2023/04/28 19:36:12;;;;;;;12.25;11.35;;;;;;;11.63;82.64;99552.09;10492280;28;20051;-73
2023/04/28 19:41:14;;;;;;;11.10;10.25;;;;;;;11.43;83.94;99542.47;10491644;28;20072;-73
2023/04/28 19:46:16;;;;;;;11.15;10.25;;;;;;;11.37;84.71;99542.69;10471702;28;20370;-73
2023/04/28 19:51:18;;;;;;;12.23;11.43;;;;;;;11.32;85.82;99528.88;10497365;28;20044;-73
2023/04/28 19:56:20;;;;;;;12.68;11.68;;;;;;;11.56;84.77;99522.56;10497565;28;20394;-73
2023/04/28 20:01:22;;;;;;;11.38;10.57;;;;;;;11.67;84.41;99537.03;10498269;28;20059;-73
2023/04/28 20:06:24;;;;;;;11.45;10.57;;;;;;;11.58;84.34;99519.88;10500440;28;20503;-73
2023/04/28 20:11:25;;;;;;;11.00;10.23;;;;;;;11.51;85.18;99518.41;10499203;28;20052;-73
2023/04/28 20:16:27;;;;;;;12.27;11.32;;;;;;;11.53;85.81;99530.59;10502720;28;20045;-72
2023/04/28 20:21:30;;;;;;;11.63;10.48;;;;;;;11.68;84.91;99526.44;10496533;28;20185;-72
2023/04/28 20:26:32;;;;;;;10.90;10.10;;;;;;;11.68;85.79;99525.56;10497274;28;20036;-72
2023/04/28 20:31:34;;;;;;;10.27;9.57;;;;;;;11.75;84.43;99511.22;10496818;28;20185;-73
2023/04/28 20:36:36;;;;;;;11.80;11.00;;;;;;;11.50;86.11;99508.81;10497611;28;20089;-73
2023/04/28 20:41:41;;;;;;;10.90;10.10;;;;;;;11.50;85.90;99501.78;10495634;28;20033;-73
2023/04/28 20:46:44;;;;;;;10.88;10.07;;;;;;;11.50;86.80;99496.50;10502782;28;20462;-73
2023/04/28 20:51:46;;;;;;;10.98;10.20;;;;;;;11.34;87.55;99496.34;10494451;28;20036;-72
2023/04/28 20:56:48;;;;;;;10.43;9.73;;;;;;;11.24;89.11;99494.16;10495109;28;20127;-72
2023/04/28 21:01:50;;;;;;;10.68;9.90;;;;;;;10.89;91.29;99488.63;10500861;28;20055;-73
2023/04/28 21:06:52;;;;;;;11.57;10.77;;;;;;;10.63;93.32;99480.97;10499181;28;20044;-73
2023/04/28 21:11:54;;;;;;;11.07;10.38;;;;;;;10.52;95.33;99497.16;10496020;28;20044;-73
2023/04/28 21:16:57;;;;;;;12.18;11.45;;;;;;;10.59;95.86;99488.13;10479084;28;20097;-72
2023/04/28 21:21:59;;;;;;;12.00;11.10;;;;;;;10.68;96.25;99485.13;10495055;28;20055;-72
2023/04/28 21:27:01;;;;;;;9.98;9.10;;;;;;;10.60;96.58;99487.19;10494118;28;20047;-73
2023/04/28 21:32:03;;;;;;;11.98;11.20;;;;;;;10.79;96.53;99482.03;10497207;28;20052;-73
2023/04/28 21:37:05;;;;;;;11.55;10.65;;;;;;;10.59;96.71;99481.09;10494107;28;20036;-73
2023/04/28 21:42:13;;;;;;;12.85;11.85;;;;;;;10.47;97.99;99481.56;10495128;28;20362;-73
2023/04/28 21:47:23;;;;;;;14.00;12.90;;;;;;;10.59;98.20;99477.59;10479433;28;20044;-73
2023/04/28 21:52:25;;;;;;;12.80;11.98;;;;;;;10.60;99.13;99481.94;10496289;28;20072;-73
2023/04/28 21:57:27;;;;;;;13.18;12.30;;;;;;;10.58;99.23;99476.75;10496010;28;20072;-76
2023/04/28 22:02:40;;;;;;;15.05;14.05;;;;;;;10.57;99.95;99468.91;10496205;28;20128;-72
2023/04/28 22:07:42;;;;;;;15.60;14.40;;;;;;;10.76;99.29;99466.41;10495633;28;20422;-72
2023/04/28 22:12:43;;;;;;;16.20;15.00;;;;;;;10.75;99.28;99455.00;10493838;28;20414;-73
2023/04/28 22:17:45;;;;;;;16.45;15.30;;;;;;;10.81;98.54;99454.78;10493500;28;20085;-73
2023/04/28 22:22:47;;;;;;;17.85;16.52;;;;;;;11.05;95.74;99444.97;10492602;28;20068;-73
2023/04/28 22:27:49;;;;;;;17.13;15.73;;;;;;;11.22;94.20;99443.41;10493194;28;20079;-72
2023/04/28 22:32:50;;;;;;;17.33;16.00;;;;;;;10.97;96.32;99469.88;10494445;28;20041;-73
2023/04/28 22:37:52;;;;;;;17.25;15.98;;;;;;;10.96;97.32;99470.81;10494874;28;20104;-73
2023/04/28 22:42:54;;;;;;;15.80;14.77;;;;;;;10.81;98.23;99478.44;10494463;28;20071;-72
2023/04/28 22:47:56;;;;;;;16.98;15.88;;;;;;;10.76;99.66;99472.50;10491580;28;20036;-72
2023/04/28 22:52:57;;;;;;;15.68;14.60;;;;;;;11.07;96.46;99473.84;10493079;28;20074;-72
2023/04/28 22:57:59;;;;;;;16.02;14.98;;;;;;;10.89;99.41;99478.13;10493421;28;20092;-74
2023/04/28 23:03:03;;;;;;;18.73;17.33;;;;;;;10.78;100.00;99457.50;10491066;28;20116;-73
2023/04/28 23:08:05;;;;;;;19.58;18.08;;;;;;;11.11;100.00;99442.09;10492259;28;20477;-73
2023/04/28 23:13:06;;;;;;;20.10;18.60;;;;;;;10.81;100.00;99449.50;10473153;28;20048;-73
2023/04/28 23:18:08;;;;;;;21.15;19.55;;;;;;;10.74;100.00;99437.53;10492157;28;20132;-74
2023/04/28 23:23:10;;;;;;;21.42;19.90;;;;;;;10.53;100.00;99426.13;10496754;28;20041;-74